createdAt,value
2022-07-27T00:01:41.293Z,43.61
2022-07-27T00:04:19.124Z,43.44
2022-07-27T00:06:46.634Z,43.49
2022-07-27T00:09:13.610Z,43.97
2022-07-27T00:11:40.506Z,43.91
2022-07-27T00:14:07.362Z,43.97
2022-07-27T00:16:34.176Z,44.09
2022-07-27T00:19:01.032Z,44.08
2022-07-27T00:21:27.752Z,44.40
2022-07-27T00:23:54.772Z,44.04
2022-07-27T00:26:21.611Z,44.34
2022-07-27T00:28:48.984Z,43.98
2022-07-27T00:31:16.085Z,44.12
2022-07-27T00:33:42.944Z,43.90
2022-07-27T00:36:09.782Z,44.19
2022-07-27T00:38:36.552Z,44.15
2022-07-27T00:41:03.447Z,44.37
2022-07-27T00:43:30.422Z,44.65
2022-07-27T00:45:57.075Z,44.39
2022-07-27T00:48:24.358Z,44.68
2022-07-27T00:50:53.374Z,44.60
2022-07-27T00:53:20.114Z,44.93
2022-07-27T00:55:47.027Z,44.71
2022-07-27T00:58:13.705Z,44.58
2022-07-27T01:00:40.459Z,44.57
2022-07-27T01:03:08.928Z,44.57
2022-07-27T01:05:37.942Z,44.81
2022-07-27T01:08:12.569Z,45.11
2022-07-27T01:10:40.108Z,45.23
2022-07-27T01:13:06.898Z,44.85
2022-07-27T01:15:40.428Z,45.36
2022-07-27T01:18:15.194Z,45.35
2022-07-27T01:20:42.642Z,45.23
2022-07-27T01:23:10.984Z,45.33
2022-07-27T01:25:39.611Z,45.42
2022-07-27T01:28:06.591Z,45.82
2022-07-27T01:30:35.479Z,45.79
2022-07-27T01:33:06.796Z,45.34
2022-07-27T01:35:34.253Z,45.83
2022-07-27T01:38:01.142Z,45.64
2022-07-27T01:40:28.165Z,45.92
2022-07-27T01:42:54.913Z,45.99
2022-07-27T01:45:21.985Z,45.71
2022-07-27T01:47:48.938Z,45.74
2022-07-27T01:50:15.765Z,45.80
2022-07-27T01:52:42.445Z,46.13
2022-07-27T01:55:10.694Z,45.72
2022-07-27T01:57:38.205Z,46.11
2022-07-27T02:00:07.706Z,46.21
2022-07-27T02:02:39.841Z,45.88
2022-07-27T02:05:07.662Z,45.90
2022-07-27T02:07:34.637Z,46.27
2022-07-27T02:10:01.360Z,46.25
2022-07-27T02:12:38.195Z,46.36
2022-07-27T02:15:15.489Z,46.25
2022-07-27T02:17:43.944Z,46.17
2022-07-27T02:20:13.599Z,46.36
2022-07-27T02:22:42.541Z,46.25
2022-07-27T02:25:10.320Z,46.55
2022-07-27T02:27:37.225Z,46.37
2022-07-27T02:30:05.546Z,46.62
2022-07-27T02:32:32.281Z,46.87
2022-07-27T02:34:59.159Z,46.74
2022-07-27T02:37:26.003Z,46.95
2022-07-27T02:39:53.099Z,46.89
2022-07-27T02:42:19.824Z,46.50
2022-07-27T02:44:46.662Z,46.68
2022-07-27T02:47:13.408Z,47.15
2022-07-27T02:49:40.189Z,46.84
2022-07-27T02:52:07.106Z,46.86
2022-07-27T02:54:34.925Z,46.87
2022-07-27T02:57:05.250Z,46.97
2022-07-27T02:59:32.037Z,46.91
2022-07-27T03:01:58.823Z,47.13
2022-07-27T03:04:25.905Z,47.10
2022-07-27T03:06:52.856Z,46.79
2022-07-27T03:09:19.566Z,46.88
2022-07-27T03:11:59.648Z,46.78
2022-07-27T03:14:26.342Z,47.16
2022-07-27T03:16:53.101Z,46.93
2022-07-27T03:19:19.935Z,47.14
2022-07-27T03:21:46.653Z,47.18
2022-07-27T03:24:13.406Z,47.51
2022-07-27T03:26:40.112Z,47.34
2022-07-27T03:29:06.797Z,47.51
2022-07-27T03:31:33.494Z,47.21
2022-07-27T03:34:02.036Z,47.11
2022-07-27T03:36:28.993Z,47.06
2022-07-27T03:38:57.483Z,47.32
2022-07-27T03:41:24.306Z,47.15
2022-07-27T03:43:50.969Z,47.49
2022-07-27T03:46:17.736Z,47.46
2022-07-27T03:48:44.593Z,47.44
2022-07-27T03:51:11.403Z,47.72
2022-07-27T03:53:38.054Z,47.80
2022-07-27T03:56:05.159Z,47.56
2022-07-27T03:58:31.786Z,47.58
2022-07-27T04:00:58.564Z,47.84
2022-07-27T04:03:25.411Z,47.42
2022-07-27T04:05:52.407Z,47.58
2022-07-27T04:08:21.238Z,47.92
2022-07-27T04:10:48.182Z,47.85
2022-07-27T04:13:14.865Z,48.09
2022-07-27T04:15:41.537Z,47.99
2022-07-27T04:18:08.370Z,47.60
2022-07-27T04:20:35.120Z,47.71
2022-07-27T04:23:01.797Z,47.85
2022-07-27T04:25:28.707Z,48.06
2022-07-27T04:27:55.407Z,48.48
2022-07-27T04:30:22.625Z,48.09
2022-07-27T04:32:49.384Z,48.29
2022-07-27T04:35:16.233Z,48.21
2022-07-27T04:37:58.563Z,48.33
2022-07-27T04:40:29.415Z,48.08
2022-07-27T04:42:56.042Z,48.30
2022-07-27T04:45:22.805Z,48.54
2022-07-27T04:47:49.520Z,48.06
2022-07-27T04:50:16.585Z,48.35
2022-07-27T04:52:44.623Z,48.35
2022-07-27T04:55:11.667Z,48.56
2022-07-27T04:57:41.751Z,48.81
2022-07-27T05:00:10.247Z,48.61
2022-07-27T05:02:40.855Z,48.58
2022-07-27T05:05:08.813Z,48.98
2022-07-27T05:07:35.569Z,48.73
2022-07-27T05:10:02.265Z,48.90
2022-07-27T05:12:28.955Z,48.87
2022-07-27T05:14:55.687Z,48.76
2022-07-27T05:17:22.339Z,49.18
2022-07-27T05:19:49.080Z,48.68
2022-07-27T05:22:15.784Z,49.07
2022-07-27T05:24:42.914Z,49.39
2022-07-27T05:27:09.739Z,49.18
2022-07-27T05:29:36.522Z,49.49
2022-07-27T05:32:03.391Z,48.97
2022-07-27T05:34:30.150Z,49.05
2022-07-27T05:36:57.088Z,49.11
2022-07-27T05:39:23.812Z,49.15
2022-07-27T05:41:50.425Z,49.05
2022-07-27T05:44:17.258Z,48.96
2022-07-27T05:46:44.002Z,48.95
2022-07-27T05:49:12.330Z,48.90
2022-07-27T05:51:39.221Z,48.92
2022-07-27T05:54:06.007Z,48.82
2022-07-27T05:56:32.643Z,49.03
2022-07-27T05:59:03.688Z,49.15
2022-07-27T06:01:33.586Z,49.25
2022-07-27T06:04:00.386Z,49.27
2022-07-27T06:06:45.762Z,49.29
2022-07-27T06:09:12.776Z,49.17
2022-07-27T06:11:39.600Z,49.46
2022-07-27T06:14:06.434Z,49.53
2022-07-27T06:16:33.381Z,49.12
2022-07-27T06:19:00.190Z,49.96
2022-07-27T06:21:28.118Z,50.04
2022-07-27T06:23:55.406Z,49.68
2022-07-27T06:26:22.199Z,49.66
2022-07-27T06:28:49.027Z,49.48
2022-07-27T06:31:15.756Z,49.29
2022-07-27T06:33:44.238Z,49.51
2022-07-27T06:36:14.957Z,49.40
2022-07-27T06:38:41.938Z,49.53
2022-07-27T06:41:08.955Z,49.04
2022-07-27T06:43:35.743Z,49.36
2022-07-27T06:46:03.320Z,49.48
2022-07-27T06:48:30.176Z,49.21
2022-07-27T06:50:57.226Z,49.25
2022-07-27T06:53:24.427Z,49.52
2022-07-27T06:55:51.259Z,49.37
2022-07-27T06:58:18.401Z,49.39
2022-07-27T07:00:45.745Z,49.31
2022-07-27T07:03:12.422Z,49.47
2022-07-27T07:05:44.542Z,49.54
2022-07-27T07:08:12.098Z,49.15
2022-07-27T07:10:43.002Z,49.41
2022-07-27T07:13:09.743Z,49.23
2022-07-27T07:15:38.050Z,48.99
2022-07-27T07:18:06.614Z,49.26
2022-07-27T07:20:34.166Z,49.15
2022-07-27T07:23:01.289Z,48.95
2022-07-27T07:25:28.891Z,48.91
2022-07-27T07:27:56.303Z,48.61
2022-07-27T07:30:23.740Z,48.12
2022-07-27T07:32:50.798Z,48.25
2022-07-27T07:35:18.005Z,48.30
2022-07-27T07:37:44.855Z,48.46
2022-07-27T07:40:43.253Z,48.42
2022-07-27T07:43:05.054Z,48.28
2022-07-27T07:45:34.347Z,48.37
2022-07-27T07:48:01.072Z,48.35
2022-07-27T07:50:27.959Z,48.19
2022-07-27T07:52:55.194Z,47.80
2022-07-27T07:55:23.867Z,47.85
2022-07-27T07:57:51.011Z,48.03
2022-07-27T08:00:19.413Z,47.99
2022-07-27T08:02:51.399Z,47.93
2022-07-27T08:05:18.651Z,47.83
2022-07-27T08:07:45.953Z,47.94
2022-07-27T08:10:15.005Z,48.29
2022-07-27T08:12:45.045Z,48.21
2022-07-27T08:15:12.685Z,48.32
2022-07-27T08:17:39.647Z,48.37
2022-07-27T08:20:07.715Z,47.72
2022-07-27T08:22:34.519Z,48.23
2022-07-27T08:25:02.069Z,48.12
2022-07-27T08:27:28.970Z,47.96
2022-07-27T08:29:55.749Z,47.67
2022-07-27T08:32:23.640Z,47.68
2022-07-27T08:34:56.517Z,47.89
2022-07-27T08:37:23.406Z,47.47
2022-07-27T08:40:38.101Z,47.51
2022-07-27T08:42:37.175Z,47.76
2022-07-27T08:45:04.147Z,47.36
2022-07-27T08:47:32.191Z,47.37
2022-07-27T08:49:59.165Z,47.37
2022-07-27T08:52:27.590Z,47.58
2022-07-27T08:54:54.825Z,47.09
2022-07-27T08:57:21.603Z,47.55
2022-07-27T08:59:49.209Z,46.90
2022-07-27T09:02:16.258Z,47.21
2022-07-27T09:04:43.098Z,47.04
2022-07-27T09:07:09.737Z,46.66
2022-07-27T09:09:45.724Z,46.90
2022-07-27T09:12:12.768Z,46.63
2022-07-27T09:14:41.075Z,46.19
2022-07-27T09:17:47.920Z,46.45
2022-07-27T09:20:18.569Z,46.05
2022-07-27T09:22:45.862Z,45.89
2022-07-27T09:25:18.406Z,45.81
2022-07-27T09:27:49.473Z,45.73
2022-07-27T09:30:18.898Z,45.42
2022-07-27T09:32:59.614Z,45.78
2022-07-27T09:35:30.178Z,45.59
2022-07-27T09:38:19.714Z,45.42
2022-07-27T09:40:48.703Z,45.10
2022-07-27T09:46:09.513Z,45.04
2022-07-27T09:48:36.978Z,45.16
2022-07-27T09:51:43.562Z,44.83
2022-07-27T09:53:54.303Z,44.99
2022-07-27T09:56:31.791Z,44.95
2022-07-27T09:59:00.131Z,44.40
2022-07-27T10:01:28.932Z,44.34
2022-07-27T10:04:00.514Z,43.66
2022-07-27T10:06:28.823Z,43.80
2022-07-27T10:08:57.274Z,43.63
2022-07-27T10:11:24.746Z,42.90
2022-07-27T10:13:52.945Z,42.73
2022-07-27T10:16:29.050Z,42.77
2022-07-27T10:18:56.006Z,42.74
2022-07-27T10:21:23.507Z,42.91
2022-07-27T10:24:05.113Z,43.35
2022-07-27T10:26:38.791Z,42.94
2022-07-27T10:29:06.787Z,43.21
2022-07-27T10:31:37.344Z,43.07
2022-07-27T10:34:06.069Z,42.90
2022-07-27T10:36:32.703Z,42.99
2022-07-27T10:39:01.762Z,43.03
2022-07-27T10:41:32.304Z,43.01
2022-07-27T10:44:23.816Z,43.08
2022-07-27T10:47:03.986Z,43.12
2022-07-27T10:49:32.911Z,43.25
2022-07-27T10:52:07.176Z,43.11
2022-07-27T10:54:39.785Z,42.71
2022-07-27T10:57:08.311Z,42.80
2022-07-27T11:00:07.427Z,42.84
2022-07-27T11:02:41.045Z,42.62
2022-07-27T11:05:29.068Z,42.22
2022-07-27T11:08:29.542Z,42.27
2022-07-27T11:10:48.120Z,42.64
2022-07-27T11:13:16.963Z,42.06
2022-07-27T11:15:59.750Z,42.37
2022-07-27T11:18:34.107Z,42.40
2022-07-27T11:21:26.205Z,41.90
2022-07-27T11:24:18.813Z,41.88
2022-07-27T11:26:47.858Z,42.20
2022-07-27T11:29:16.274Z,42.12
2022-07-27T11:31:55.192Z,42.14
2022-07-27T11:34:30.957Z,42.05
2022-07-27T11:37:04.351Z,42.12
2022-07-27T11:42:21.684Z,42.41
2022-07-27T11:44:51.002Z,42.43
2022-07-27T11:47:19.367Z,42.36
2022-07-27T11:49:46.617Z,42.44
2022-07-27T11:52:17.271Z,42.19
2022-07-27T11:54:43.977Z,42.46
2022-07-27T11:57:12.980Z,42.38
2022-07-27T11:59:41.804Z,42.42
2022-07-27T12:02:23.104Z,41.93
2022-07-27T12:04:51.794Z,42.07
2022-07-27T12:07:38.035Z,41.79
2022-07-27T12:10:07.082Z,41.83
2022-07-27T12:12:35.424Z,41.82
2022-07-27T12:18:03.343Z,41.80
2022-07-27T12:20:34.547Z,41.33
2022-07-27T12:23:08.683Z,41.19
2022-07-27T12:25:36.466Z,41.17
2022-07-27T12:28:05.889Z,41.13
2022-07-27T12:30:40.249Z,41.45
2022-07-27T12:33:09.138Z,41.25
2022-07-27T12:35:47.143Z,40.97
2022-07-27T12:38:14.023Z,41.09
2022-07-27T12:40:48.300Z,40.72
2022-07-27T12:43:18.031Z,41.04
2022-07-27T12:45:45.109Z,40.84
2022-07-27T12:48:17.266Z,40.55
2022-07-27T12:50:46.007Z,40.12
2022-07-27T12:53:14.040Z,40.52
2022-07-27T12:55:42.963Z,40.54
2022-07-27T12:58:11.091Z,40.02
2022-07-27T13:00:37.983Z,40.45
2022-07-27T13:03:06.078Z,39.93
2022-07-27T13:05:34.205Z,40.32
2022-07-27T13:08:01.801Z,40.24
2022-07-27T13:10:28.679Z,40.20
2022-07-27T13:12:55.423Z,40.13
2022-07-27T13:15:22.161Z,39.82
2022-07-27T13:17:49.097Z,39.92
2022-07-27T13:20:17.294Z,39.48
2022-07-27T13:22:44.805Z,39.21
2022-07-27T13:25:16.322Z,39.59
2022-07-27T13:27:46.806Z,39.49
2022-07-27T13:30:15.051Z,39.21
2022-07-27T13:32:42.051Z,39.23
2022-07-27T13:35:12.230Z,39.00
2022-07-27T13:37:39.179Z,39.08
2022-07-27T13:40:06.679Z,38.52
2022-07-27T13:42:33.417Z,38.42
2022-07-27T13:45:09.203Z,38.34
2022-07-27T13:47:36.998Z,38.39
2022-07-27T13:50:04.724Z,38.62
2022-07-27T13:52:31.506Z,38.59
2022-07-27T13:54:58.270Z,38.11
2022-07-27T13:57:25.038Z,38.56
2022-07-27T13:59:51.806Z,38.20
2022-07-27T14:02:23.261Z,38.29
2022-07-27T14:04:52.785Z,38.22
2022-07-27T14:07:21.498Z,38.40
2022-07-27T14:10:10.436Z,38.45
2022-07-27T14:12:37.235Z,38.00
2022-07-27T14:15:05.129Z,38.40
2022-07-27T14:17:32.311Z,38.30
2022-07-27T14:19:58.948Z,37.81
2022-07-27T14:22:25.659Z,38.10
2022-07-27T14:24:52.352Z,38.10
2022-07-27T14:27:19.030Z,37.75
2022-07-27T14:29:45.801Z,37.89
2022-07-27T14:32:12.694Z,37.66
2022-07-27T14:34:39.801Z,37.56
2022-07-27T14:37:06.590Z,37.73
2022-07-27T14:39:33.289Z,37.46
2022-07-27T14:42:01.404Z,37.39
2022-07-27T14:44:28.454Z,37.29
2022-07-27T14:46:55.218Z,37.43
2022-07-27T14:49:25.425Z,37.69
2022-07-27T14:51:52.776Z,37.43
2022-07-27T14:54:20.055Z,37.04
2022-07-27T14:56:46.769Z,36.99
2022-07-27T14:59:13.814Z,36.93
2022-07-27T15:01:40.994Z,36.66
2022-07-27T15:04:07.836Z,37.07
2022-07-27T15:06:38.890Z,36.82
2022-07-27T15:09:07.687Z,36.90
2022-07-27T15:11:34.545Z,37.13
2022-07-27T15:14:01.326Z,37.10
2022-07-27T15:16:32.125Z,36.85
2022-07-27T15:18:59.407Z,37.17
2022-07-27T15:21:26.650Z,36.95
2022-07-27T15:23:53.585Z,36.91
2022-07-27T15:26:20.315Z,37.22
2022-07-27T15:28:47.053Z,37.28
2022-07-27T15:31:13.965Z,37.23
2022-07-27T15:33:41.228Z,37.40
2022-07-27T15:36:08.109Z,37.25
2022-07-27T15:38:35.017Z,37.33
2022-07-27T15:41:01.884Z,37.38
2022-07-27T15:43:28.751Z,37.54
2022-07-27T15:45:55.508Z,37.46
2022-07-27T15:48:23.102Z,37.37
2022-07-27T15:50:51.817Z,36.92
2022-07-27T15:53:20.828Z,37.03
2022-07-27T15:55:48.563Z,37.31
2022-07-27T15:58:19.235Z,37.26
2022-07-27T16:00:51.395Z,37.37
2022-07-27T16:03:18.459Z,37.15
2022-07-27T16:05:48.596Z,37.26
2022-07-27T16:08:16.686Z,36.80
2022-07-27T16:10:43.836Z,36.86
2022-07-27T16:13:13.099Z,37.04
2022-07-27T16:15:59.397Z,36.75
2022-07-27T16:18:26.674Z,36.70
2022-07-27T16:20:53.851Z,36.57
2022-07-27T16:23:22.003Z,36.95
2022-07-27T16:26:04.637Z,37.08
2022-07-27T16:28:33.873Z,36.52
2022-07-27T16:31:00.986Z,36.58
2022-07-27T16:33:27.734Z,36.71
2022-07-27T16:35:54.443Z,36.64
2022-07-27T16:38:21.167Z,36.19
2022-07-27T16:40:47.823Z,36.47
2022-07-27T16:43:14.705Z,36.15
2022-07-27T16:45:41.365Z,36.12
2022-07-27T16:48:08.809Z,36.49
2022-07-27T16:50:35.570Z,36.13
2022-07-27T16:53:02.358Z,36.18
2022-07-27T16:55:30.060Z,36.06
2022-07-27T16:57:57.068Z,35.95
2022-07-27T17:00:23.781Z,36.41
2022-07-27T17:02:50.531Z,36.09
2022-07-27T17:05:18.251Z,35.93
2022-07-27T17:07:45.719Z,36.37
2022-07-27T17:10:12.536Z,36.02
2022-07-27T17:12:53.502Z,35.93
2022-07-27T17:15:20.984Z,36.01
2022-07-27T17:17:47.718Z,35.98
2022-07-27T17:20:14.662Z,36.51
2022-07-27T17:22:41.412Z,36.09
2022-07-27T17:25:08.347Z,36.58
2022-07-27T17:27:36.656Z,36.11
2022-07-27T17:30:04.602Z,36.56
2022-07-27T17:32:31.285Z,36.19
2022-07-27T17:34:58.043Z,36.29
2022-07-27T17:37:24.895Z,36.10
2022-07-27T17:39:51.814Z,36.19
2022-07-27T17:42:20.528Z,36.06
2022-07-27T17:44:47.221Z,36.31
2022-07-27T17:47:13.964Z,36.46
2022-07-27T17:49:41.151Z,36.24
2022-07-27T17:52:08.415Z,36.33
2022-07-27T17:54:38.166Z,36.35
2022-07-27T17:57:04.950Z,36.27
2022-07-27T17:59:38.871Z,35.89
2022-07-27T18:02:05.894Z,35.88
2022-07-27T18:04:38.895Z,36.03
2022-07-27T18:07:06.373Z,35.77
2022-07-27T18:09:33.641Z,36.09
2022-07-27T18:12:00.565Z,36.16
2022-07-27T18:14:27.338Z,35.89
2022-07-27T18:16:54.300Z,36.20
2022-07-27T18:19:21.198Z,36.29
2022-07-27T18:21:47.929Z,36.12
2022-07-27T18:24:14.866Z,35.76
2022-07-27T18:26:41.602Z,36.14
2022-07-27T18:29:08.691Z,35.96
2022-07-27T18:31:35.458Z,35.95
2022-07-27T18:34:02.509Z,35.88
2022-07-27T18:36:29.457Z,36.09
2022-07-27T18:38:57.297Z,35.83
2022-07-27T18:41:24.908Z,36.18
2022-07-27T18:43:51.670Z,35.92
2022-07-27T18:46:22.390Z,35.79
2022-07-27T18:48:49.787Z,36.05
2022-07-27T18:51:17.016Z,35.75
2022-07-27T18:53:46.657Z,35.94
2022-07-27T18:56:13.386Z,35.95
2022-07-27T18:58:40.990Z,35.90
2022-07-27T19:01:09.704Z,36.13
2022-07-27T19:03:37.319Z,36.39
2022-07-27T19:06:07.391Z,36.72
2022-07-27T19:08:35.260Z,36.76
2022-07-27T19:11:02.002Z,37.18
2022-07-27T19:13:28.635Z,36.71
2022-07-27T19:15:55.397Z,36.95
2022-07-27T19:18:23.669Z,37.05
2022-07-27T19:20:50.630Z,37.29
2022-07-27T19:23:17.533Z,37.57
2022-07-27T19:25:45.318Z,37.67
2022-07-27T19:28:14.946Z,37.82
2022-07-27T19:30:42.039Z,38.21
2022-07-27T19:33:08.783Z,38.47
2022-07-27T19:35:35.493Z,38.41
2022-07-27T19:38:02.358Z,38.73
2022-07-27T19:40:45.727Z,38.87
2022-07-27T19:43:13.056Z,38.98
2022-07-27T19:45:39.794Z,39.04
2022-07-27T19:48:08.179Z,39.24
2022-07-27T19:50:35.005Z,38.87
2022-07-27T19:53:02.553Z,39.12
2022-07-27T19:55:29.753Z,39.38
2022-07-27T19:57:56.437Z,39.17
2022-07-27T20:00:23.270Z,39.76
2022-07-27T20:02:50.483Z,39.54
2022-07-27T20:05:17.412Z,39.56
2022-07-27T20:07:44.723Z,39.84
2022-07-27T20:10:11.894Z,39.59
2022-07-27T20:12:38.747Z,40.20
2022-07-27T20:15:06.578Z,40.27
2022-07-27T20:17:36.977Z,40.19
2022-07-27T20:20:05.294Z,40.38
2022-07-27T20:22:32.045Z,40.47
2022-07-27T20:24:58.826Z,40.44
2022-07-27T20:27:25.840Z,40.35
2022-07-27T20:29:52.560Z,40.08
2022-07-27T20:32:19.247Z,40.03
2022-07-27T20:34:45.984Z,39.94
2022-07-27T20:37:12.661Z,40.29
2022-07-27T20:39:39.351Z,39.95
2022-07-27T20:42:06.184Z,40.20
2022-07-27T20:44:32.953Z,39.93
2022-07-27T20:46:59.835Z,40.11
2022-07-27T20:49:26.633Z,40.67
2022-07-27T20:51:53.336Z,40.25
2022-07-27T20:54:29.108Z,40.41
2022-07-27T20:56:57.861Z,40.84
2022-07-27T20:59:24.788Z,40.58
2022-07-27T21:01:52.022Z,40.79
2022-07-27T21:04:19.436Z,40.89
2022-07-27T21:06:46.551Z,40.85
2022-07-27T21:09:13.646Z,41.05
2022-07-27T21:11:40.678Z,41.13
2022-07-27T21:14:07.819Z,41.49
2022-07-27T21:16:34.625Z,41.33
2022-07-27T21:19:01.407Z,41.46
2022-07-27T21:21:28.758Z,41.74
2022-07-27T21:24:14.686Z,41.56
2022-07-27T21:26:43.355Z,41.73
2022-07-27T21:29:11.051Z,41.69
2022-07-27T21:31:39.035Z,41.69
2022-07-27T21:34:09.939Z,41.86
2022-07-27T21:36:37.582Z,42.11
2022-07-27T21:39:05.070Z,41.71
2022-07-27T21:41:32.164Z,41.82
2022-07-27T21:43:58.852Z,41.94
2022-07-27T21:46:25.752Z,41.61
2022-07-27T21:48:52.509Z,42.05
2022-07-27T21:51:19.607Z,41.66
2022-07-27T21:53:46.339Z,41.60
2022-07-27T21:56:14.167Z,41.74
2022-07-27T21:58:44.335Z,41.80
2022-07-27T22:01:17.347Z,41.93
2022-07-27T22:03:44.301Z,41.94
2022-07-27T22:06:11.167Z,41.83
2022-07-27T22:08:38.102Z,42.12
2022-07-27T22:11:05.250Z,41.96
2022-07-27T22:13:32.463Z,42.51
2022-07-27T22:15:59.230Z,42.31
2022-07-27T22:18:26.287Z,42.25
2022-07-27T22:20:52.996Z,42.52
2022-07-27T22:23:19.766Z,42.25
2022-07-27T22:25:46.441Z,42.68
2022-07-27T22:28:13.151Z,42.83
2022-07-27T22:30:40.298Z,42.64
2022-07-27T22:33:07.697Z,42.84
2022-07-27T22:35:34.890Z,43.11
2022-07-27T22:38:02.044Z,42.85
2022-07-27T22:40:29.045Z,43.28
2022-07-27T22:42:55.878Z,43.30
2022-07-27T22:45:23.159Z,42.96
2022-07-27T22:47:50.461Z,42.99
2022-07-27T22:50:20.281Z,43.04
2022-07-27T22:52:47.672Z,43.15
2022-07-27T22:55:14.852Z,42.87
2022-07-27T22:57:41.717Z,42.96
2022-07-27T23:00:09.141Z,43.27
2022-07-27T23:02:35.953Z,43.46
2022-07-27T23:05:02.669Z,43.35
2022-07-27T23:07:29.421Z,43.34
2022-07-27T23:09:56.863Z,43.64
2022-07-27T23:12:24.482Z,43.47
2022-07-27T23:14:51.324Z,43.42
2022-07-27T23:17:18.451Z,43.47
2022-07-27T23:19:45.153Z,43.75
2022-07-27T23:22:11.891Z,43.76
2022-07-27T23:24:40.989Z,43.43
2022-07-27T23:27:07.873Z,43.64
2022-07-27T23:29:34.546Z,43.37
2022-07-27T23:32:02.873Z,43.64
2022-07-27T23:34:29.674Z,43.80
2022-07-27T23:36:56.483Z,43.60
2022-07-27T23:39:23.207Z,43.83
2022-07-27T23:41:50.371Z,43.76
2022-07-27T23:44:17.634Z,43.70
2022-07-27T23:46:44.559Z,44.20
2022-07-27T23:49:11.644Z,43.75
2022-07-27T23:51:38.485Z,43.85
2022-07-27T23:54:05.226Z,44.37
2022-07-27T23:56:32.032Z,43.80
2022-07-27T23:58:58.756Z,44.26
